createdAt,value
2018-03-27T00:00:42.145Z,49.60
2018-03-27T00:01:42.131Z,52.20
2018-03-27T00:02:42.123Z,53.30
2018-03-27T00:03:42.105Z,51.40
2018-03-27T00:04:42.096Z,50.80
2018-03-27T00:05:42.084Z,48.60
2018-03-27T00:06:42.068Z,52.00
2018-03-27T00:07:42.053Z,47.50
2018-03-27T00:08:42.046Z,48.30
2018-03-27T00:09:42.027Z,52.70
2018-03-27T00:10:42.012Z,51.10
2018-03-27T00:11:42.002Z,51.00
2018-03-27T00:12:41.997Z,49.90
2018-03-27T00:13:41.976Z,52.70
2018-03-27T00:14:41.975Z,51.10
2018-03-27T00:15:41.946Z,51.70
2018-03-27T00:16:41.940Z,49.40
2018-03-27T00:17:41.926Z,52.10
2018-03-27T00:18:41.918Z,55.20
2018-03-27T00:19:41.897Z,53.50
2018-03-27T00:20:41.880Z,52.70
2018-03-27T00:21:41.867Z,48.20
2018-03-27T00:22:41.858Z,48.90
2018-03-27T00:23:41.841Z,51.50
2018-03-27T00:24:41.827Z,54.00
2018-03-27T00:25:41.814Z,53.40
2018-03-27T00:26:41.801Z,53.70
2018-03-27T00:27:41.787Z,52.90
2018-03-27T00:28:41.775Z,54.20
2018-03-27T00:29:41.760Z,55.40
2018-03-27T00:30:41.751Z,54.60
2018-03-27T00:31:41.732Z,56.20
2018-03-27T00:32:41.718Z,55.20
2018-03-27T00:33:41.710Z,51.60
2018-03-27T00:34:41.699Z,52.60
2018-03-27T00:35:41.681Z,49.20
2018-03-27T00:36:41.665Z,52.10
2018-03-27T00:37:41.653Z,51.80
2018-03-27T00:38:41.645Z,52.70
2018-03-27T00:39:41.624Z,52.10
2018-03-27T00:40:41.609Z,57.80
2018-03-27T00:41:41.596Z,60.30
2018-03-27T00:42:41.589Z,55.50
2018-03-27T00:43:41.574Z,57.00
2018-03-27T00:44:41.557Z,53.90
2018-03-27T00:45:41.548Z,52.50
2018-03-27T00:46:41.529Z,49.40
2018-03-27T00:47:41.514Z,45.70
2018-03-27T00:48:41.502Z,42.00
2018-03-27T00:49:41.489Z,49.40
2018-03-27T00:50:41.475Z,52.90
2018-03-27T00:51:41.461Z,50.20
2018-03-27T00:52:41.446Z,45.00
2018-03-27T00:53:41.434Z,46.80
2018-03-27T00:54:41.419Z,49.20
2018-03-27T00:55:41.409Z,48.60
2018-03-27T00:56:41.394Z,47.50
2018-03-27T00:57:41.377Z,46.60
2018-03-27T00:58:41.365Z,47.70
2018-03-27T00:59:41.351Z,47.80
2018-03-27T01:00:41.336Z,44.00
2018-03-27T01:01:41.323Z,48.00
2018-03-27T01:02:41.315Z,45.80
2018-03-27T01:03:41.301Z,46.30
2018-03-27T01:04:41.282Z,48.30
2018-03-27T01:05:41.269Z,46.20
2018-03-27T01:06:41.261Z,46.90
2018-03-27T01:07:41.242Z,49.20
2018-03-27T01:08:41.229Z,49.20
2018-03-27T01:09:41.214Z,51.70
2018-03-27T01:10:41.201Z,50.80
2018-03-27T01:11:41.186Z,48.50
2018-03-27T01:12:41.172Z,47.50
2018-03-27T01:13:41.166Z,47.60
2018-03-27T01:14:41.153Z,50.50
2018-03-27T01:15:41.138Z,48.10
2018-03-27T01:16:41.117Z,49.80
2018-03-27T01:17:41.105Z,48.10
2018-03-27T01:18:41.095Z,49.20
2018-03-27T01:19:41.077Z,52.60
2018-03-27T01:20:41.069Z,53.20
2018-03-27T01:21:41.049Z,53.40
2018-03-27T01:22:41.041Z,51.60
2018-03-27T01:23:41.022Z,50.40
2018-03-27T01:24:41.012Z,51.30
2018-03-27T01:25:40.994Z,51.70
2018-03-27T01:26:40.979Z,54.90
2018-03-27T01:27:40.973Z,59.20
2018-03-27T01:28:40.954Z,54.10
2018-03-27T01:29:40.939Z,52.30
2018-03-27T01:30:40.924Z,53.10
2018-03-27T01:31:40.920Z,51.90
2018-03-27T01:32:40.907Z,56.50
2018-03-27T01:33:40.884Z,54.60
2018-03-27T01:34:40.876Z,57.20
2018-03-27T01:35:40.864Z,56.30
2018-03-27T01:36:40.845Z,53.60
2018-03-27T01:37:40.830Z,54.20
2018-03-27T01:38:40.816Z,53.60
2018-03-27T01:39:40.809Z,48.00
2018-03-27T01:40:40.788Z,52.10
2018-03-27T01:41:40.775Z,50.80
2018-03-27T01:42:40.762Z,48.70
2018-03-27T01:43:40.747Z,49.40
2018-03-27T01:44:40.734Z,49.20
2018-03-27T01:45:40.722Z,52.00
2018-03-27T01:46:40.708Z,51.50
2018-03-27T01:47:40.693Z,52.10
2018-03-27T01:48:40.679Z,51.00
2018-03-27T01:49:40.669Z,54.80
2018-03-27T01:50:40.659Z,54.50
2018-03-27T01:51:40.642Z,53.70
2018-03-27T01:52:40.629Z,54.10
2018-03-27T01:53:40.615Z,57.60
2018-03-27T01:54:40.606Z,55.60
2018-03-27T01:55:40.582Z,52.60
2018-03-27T01:56:40.573Z,52.90
2018-03-27T01:57:40.554Z,55.30
2018-03-27T01:58:40.546Z,56.90
2018-03-27T01:59:40.526Z,56.50
2018-03-27T02:00:40.513Z,54.70
2018-03-27T02:01:40.498Z,53.20
2018-03-27T02:02:40.484Z,55.30
2018-03-27T02:03:40.470Z,53.60
2018-03-27T02:04:40.465Z,53.20
2018-03-27T02:05:40.450Z,52.90
2018-03-27T02:06:40.429Z,55.20
2018-03-27T02:07:40.415Z,55.80
2018-03-27T02:08:40.402Z,56.60
2018-03-27T02:09:40.388Z,55.60
2018-03-27T02:10:40.376Z,58.60
2018-03-27T02:11:40.376Z,56.00
2018-03-27T02:12:40.353Z,55.40
2018-03-27T02:13:40.332Z,55.20
2018-03-27T02:14:40.320Z,54.80
2018-03-27T02:15:40.306Z,55.70
2018-03-27T02:16:40.297Z,54.50
2018-03-27T02:17:40.277Z,54.90
2018-03-27T02:18:40.270Z,53.70
2018-03-27T02:19:40.256Z,57.10
2018-03-27T02:20:40.236Z,59.90
2018-03-27T02:21:40.226Z,60.10
2018-03-27T02:22:40.212Z,54.70
2018-03-27T02:23:40.197Z,56.50
2018-03-27T02:24:40.184Z,55.50
2018-03-27T02:25:40.175Z,54.20
2018-03-27T02:26:40.156Z,53.70
2018-03-27T02:27:40.140Z,56.50
2018-03-27T02:28:40.125Z,55.50
2018-03-27T02:29:40.112Z,55.80
2018-03-27T02:30:40.099Z,59.50
2018-03-27T02:31:40.091Z,57.90
2018-03-27T02:32:40.076Z,62.40
2018-03-27T02:33:40.057Z,63.40
2018-03-27T02:34:40.052Z,61.90
2018-03-27T02:35:40.036Z,56.30
2018-03-27T02:36:40.021Z,56.80
2018-03-27T02:37:40.008Z,54.90
2018-03-27T02:38:40.007Z,59.00
2018-03-27T02:39:39.975Z,55.00
2018-03-27T02:40:39.968Z,57.00
2018-03-27T02:41:39.956Z,53.70
2018-03-27T02:42:39.932Z,56.20
2018-03-27T02:43:39.922Z,53.60
2018-03-27T02:44:39.903Z,56.10
2018-03-27T02:45:39.897Z,58.20
2018-03-27T02:46:39.875Z,58.40
2018-03-27T02:47:39.867Z,55.10
2018-03-27T02:48:39.852Z,58.60
2018-03-27T02:49:39.838Z,59.60
2018-03-27T02:50:39.816Z,59.20
2018-03-27T02:51:39.804Z,58.70
2018-03-27T02:52:39.789Z,61.50
2018-03-27T02:53:39.781Z,59.50
2018-03-27T02:54:39.792Z,55.00
2018-03-27T02:55:39.746Z,51.80
2018-03-27T02:56:39.735Z,54.70
2018-03-27T02:57:39.719Z,55.40
2018-03-27T02:58:39.703Z,53.20
2018-03-27T02:59:39.691Z,52.60
2018-03-27T03:00:39.678Z,57.90
2018-03-27T03:01:39.673Z,58.90
2018-03-27T03:02:39.648Z,52.90
2018-03-27T03:03:39.637Z,58.00
2018-03-27T03:04:39.627Z,55.20
2018-03-27T03:05:39.606Z,52.50
2018-03-27T03:06:39.599Z,52.70
2018-03-27T03:07:39.593Z,53.20
2018-03-27T03:08:39.563Z,58.40
2018-03-27T03:09:39.554Z,51.50
2018-03-27T03:10:39.546Z,54.00
2018-03-27T03:11:39.522Z,57.10
2018-03-27T03:12:39.506Z,60.20
2018-03-27T03:13:39.500Z,56.60
2018-03-27T03:14:39.480Z,53.40
2018-03-27T03:15:39.467Z,53.40
2018-03-27T03:16:39.462Z,54.40
2018-03-27T03:17:39.437Z,51.20
2018-03-27T03:18:39.422Z,53.60
2018-03-27T03:19:39.415Z,57.70
2018-03-27T03:20:39.400Z,58.20
2018-03-27T03:21:39.382Z,54.00
2018-03-27T03:22:39.368Z,62.60
2018-03-27T03:23:39.352Z,57.30
2018-03-27T03:24:39.340Z,59.30
2018-03-27T03:25:39.327Z,60.70
2018-03-27T03:26:39.310Z,61.70
2018-03-27T03:27:39.296Z,55.40
2018-03-27T03:28:39.284Z,61.20
2018-03-27T03:29:39.275Z,59.70
2018-03-27T03:30:39.263Z,61.10
2018-03-27T03:31:39.243Z,58.80
2018-03-27T03:32:39.234Z,59.40
2018-03-27T03:33:39.224Z,57.30
2018-03-27T03:34:39.217Z,61.40
2018-03-27T03:35:39.190Z,59.30
2018-03-27T03:36:39.180Z,58.90
2018-03-27T03:37:39.159Z,58.10
2018-03-27T03:38:39.143Z,63.70
2018-03-27T03:39:39.129Z,54.70
2018-03-27T03:40:39.120Z,57.00
2018-03-27T03:41:39.104Z,51.90
2018-03-27T03:42:39.093Z,59.70
2018-03-27T03:43:39.072Z,59.00
2018-03-27T03:44:39.057Z,60.00
2018-03-27T03:45:39.045Z,60.60
2018-03-27T03:46:39.029Z,54.70
2018-03-27T03:47:39.022Z,63.90
2018-03-27T03:48:39.007Z,60.50
2018-03-27T03:49:38.987Z,60.80
2018-03-27T03:50:38.984Z,65.70
2018-03-27T03:51:38.960Z,60.80
2018-03-27T03:52:38.945Z,61.60
2018-03-27T03:53:38.933Z,58.60
2018-03-27T03:54:38.927Z,57.00
2018-03-27T03:55:38.904Z,57.90
2018-03-27T03:56:38.893Z,58.30
2018-03-27T03:57:38.877Z,59.90
2018-03-27T03:58:38.861Z,60.60
2018-03-27T03:59:38.853Z,58.80
2018-03-27T04:00:38.836Z,62.00
2018-03-27T04:01:38.819Z,58.90
2018-03-27T04:02:38.809Z,59.80
2018-03-27T04:03:38.799Z,66.70
2018-03-27T04:04:38.784Z,68.80
2018-03-27T04:05:38.773Z,63.40
2018-03-27T04:06:38.748Z,63.90
2018-03-27T04:07:38.735Z,65.00
2018-03-27T04:08:38.725Z,63.90
2018-03-27T04:09:38.711Z,64.00
2018-03-27T04:10:38.692Z,63.50
2018-03-27T04:11:38.680Z,65.50
2018-03-27T04:12:38.666Z,65.70
2018-03-27T04:13:38.659Z,65.70
2018-03-27T04:14:38.636Z,63.10
2018-03-27T04:15:38.624Z,62.00
2018-03-27T04:16:38.609Z,67.60
2018-03-27T04:17:38.599Z,65.90
2018-03-27T04:18:38.582Z,67.00
2018-03-27T04:19:38.566Z,64.70
2018-03-27T04:20:38.563Z,67.40
2018-03-27T04:21:38.539Z,62.50
2018-03-27T04:22:38.525Z,64.80
2018-03-27T04:23:38.511Z,68.50
2018-03-27T04:24:38.505Z,66.40
2018-03-27T04:25:38.488Z,66.90
2018-03-27T04:26:38.473Z,66.90
2018-03-27T04:27:38.462Z,64.80
2018-03-27T04:28:38.449Z,67.40
2018-03-27T04:29:38.444Z,68.00
2018-03-27T04:30:38.422Z,71.10
2018-03-27T04:31:38.420Z,67.90
2018-03-27T04:32:38.389Z,68.70
2018-03-27T04:33:38.383Z,68.30
2018-03-27T04:34:38.358Z,61.50
2018-03-27T04:35:38.352Z,58.40
2018-03-27T04:36:38.343Z,65.70
2018-03-27T04:37:38.325Z,59.50
2018-03-27T04:38:38.301Z,62.70
2018-03-27T04:39:38.293Z,61.90
2018-03-27T04:40:38.285Z,67.40
2018-03-27T04:41:38.267Z,64.20
2018-03-27T04:42:38.249Z,66.00
2018-03-27T04:43:38.238Z,58.10
2018-03-27T04:44:38.220Z,61.60
2018-03-27T04:45:38.210Z,61.10
2018-03-27T04:46:38.193Z,61.10
2018-03-27T04:47:38.175Z,68.10
2018-03-27T04:48:38.159Z,59.70
2018-03-27T04:49:38.146Z,61.90
2018-03-27T04:50:38.140Z,56.80
2018-03-27T04:51:38.118Z,63.80
2018-03-27T04:52:38.106Z,63.10
2018-03-27T04:53:38.092Z,66.20
2018-03-27T04:54:38.086Z,62.50
2018-03-27T04:55:38.063Z,59.50
2018-03-27T04:56:38.053Z,64.70
2018-03-27T04:57:38.033Z,65.40
2018-03-27T04:58:38.025Z,62.40
2018-03-27T04:59:38.013Z,64.90
2018-03-27T05:00:37.989Z,64.10
2018-03-27T05:01:37.976Z,67.00
2018-03-27T05:02:37.967Z,65.70
2018-03-27T05:03:37.950Z,65.50
2018-03-27T05:04:37.940Z,62.10
2018-03-27T05:05:37.925Z,66.60
2018-03-27T05:06:37.906Z,67.60
2018-03-27T05:07:37.892Z,62.90
2018-03-27T05:08:37.883Z,61.30
2018-03-27T05:09:37.864Z,65.10
2018-03-27T05:10:37.850Z,64.70
2018-03-27T05:11:37.835Z,68.70
2018-03-27T05:12:37.836Z,63.90
2018-03-27T05:13:37.808Z,65.10
2018-03-27T05:14:37.798Z,67.60
2018-03-27T05:15:37.785Z,66.20
2018-03-27T05:16:37.770Z,68.40
2018-03-27T05:17:37.751Z,65.80
2018-03-27T05:18:37.736Z,66.80
2018-03-27T05:19:37.724Z,64.40
2018-03-27T05:20:37.712Z,70.40
2018-03-27T05:21:37.695Z,64.50
2018-03-27T05:22:37.685Z,66.30
2018-03-27T05:23:37.666Z,66.20
2018-03-27T05:24:37.659Z,61.30
2018-03-27T05:25:37.644Z,62.40
2018-03-27T05:26:37.631Z,65.10
2018-03-27T05:27:37.616Z,67.10
2018-03-27T05:28:37.594Z,67.30
2018-03-27T05:29:37.593Z,72.40
2018-03-27T05:30:37.576Z,66.90
2018-03-27T05:31:37.551Z,68.20
2018-03-27T05:32:37.542Z,63.90
2018-03-27T05:33:37.531Z,61.90
2018-03-27T05:34:37.514Z,63.90
2018-03-27T05:35:37.496Z,61.90
2018-03-27T05:36:37.482Z,66.10
2018-03-27T05:37:37.468Z,59.80
2018-03-27T05:38:37.470Z,64.30
2018-03-27T05:39:37.445Z,69.50
2018-03-27T05:40:37.426Z,66.90
2018-03-27T05:41:37.413Z,63.00
2018-03-27T05:42:37.397Z,58.60
2018-03-27T05:43:37.387Z,62.10
2018-03-27T05:44:37.372Z,60.00
2018-03-27T05:45:37.356Z,61.50
2018-03-27T05:46:37.346Z,61.60
2018-03-27T05:47:37.329Z,64.00
2018-03-27T05:48:37.314Z,63.90
2018-03-27T05:49:37.312Z,62.70
2018-03-27T05:50:37.297Z,62.90
2018-03-27T05:51:37.288Z,66.50
2018-03-27T05:52:37.266Z,65.50
2018-03-27T05:53:37.257Z,64.80
2018-03-27T05:54:37.231Z,63.90
2018-03-27T05:55:37.225Z,66.00
2018-03-27T05:56:37.204Z,69.60
2018-03-27T05:57:37.191Z,66.60
2018-03-27T05:58:37.180Z,68.60
2018-03-27T05:59:37.165Z,68.00
2018-03-27T06:00:37.148Z,68.70
2018-03-27T06:01:37.150Z,68.70
2018-03-27T06:02:37.124Z,64.00
2018-03-27T06:03:37.112Z,66.20
2018-03-27T06:04:37.097Z,69.40
2018-03-27T06:05:37.079Z,67.60
2018-03-27T06:06:37.071Z,62.60
2018-03-27T06:07:37.049Z,66.70
2018-03-27T06:08:37.036Z,64.00
2018-03-27T06:09:37.029Z,65.10
2018-03-27T06:10:37.016Z,66.60
2018-03-27T06:11:36.999Z,62.80
2018-03-27T06:12:36.990Z,70.10
2018-03-27T06:13:36.968Z,63.80
2018-03-27T06:14:36.951Z,63.00
2018-03-27T06:15:36.944Z,65.50
2018-03-27T06:16:36.936Z,69.60
2018-03-27T06:17:36.919Z,68.50
2018-03-27T06:18:36.979Z,68.00
2018-03-27T06:19:36.901Z,70.20
2018-03-27T06:20:36.879Z,59.60
2018-03-27T06:21:36.868Z,64.10
2018-03-27T06:22:36.843Z,60.80
2018-03-27T06:23:36.833Z,61.60
2018-03-27T06:24:36.816Z,63.30
2018-03-27T06:25:36.806Z,65.60
2018-03-27T06:26:36.788Z,62.40
2018-03-27T06:27:36.787Z,66.70
2018-03-27T06:28:36.762Z,61.80
2018-03-27T06:29:36.752Z,59.10
2018-03-27T06:30:36.732Z,65.60
2018-03-27T06:31:36.720Z,63.40
2018-03-27T06:32:36.716Z,68.40
2018-03-27T06:33:36.693Z,70.30
2018-03-27T06:34:36.680Z,69.30
2018-03-27T06:35:36.665Z,64.60
2018-03-27T06:36:36.656Z,64.70
2018-03-27T06:37:36.642Z,68.50
2018-03-27T06:38:36.632Z,69.40
2018-03-27T06:39:36.611Z,70.10
2018-03-27T06:40:36.596Z,67.60
2018-03-27T06:41:36.594Z,66.00
2018-03-27T06:42:36.569Z,65.70
2018-03-27T06:43:36.558Z,66.10
2018-03-27T06:44:36.598Z,64.70
2018-03-27T06:45:36.529Z,65.40
2018-03-27T06:46:36.515Z,65.30
2018-03-27T06:47:36.512Z,69.50
2018-03-27T06:48:36.491Z,63.30
2018-03-27T06:49:36.476Z,67.40
2018-03-27T06:50:36.466Z,64.70
2018-03-27T06:51:36.455Z,63.70
2018-03-27T06:52:36.435Z,66.20
2018-03-27T06:53:36.428Z,66.80
2018-03-27T06:54:36.407Z,67.10
2018-03-27T06:55:36.402Z,63.70
2018-03-27T06:56:36.381Z,64.00
2018-03-27T06:57:36.375Z,64.30
2018-03-27T06:58:36.360Z,63.70
2018-03-27T06:59:36.343Z,61.20
2018-03-27T07:00:36.329Z,62.70
2018-03-27T07:01:36.316Z,61.10
2018-03-27T07:02:36.343Z,62.60
2018-03-27T07:03:36.295Z,63.60
2018-03-27T07:04:36.320Z,62.80
2018-03-27T07:05:36.370Z,58.50
2018-03-27T07:06:36.259Z,60.70
2018-03-27T07:07:36.237Z,55.40
2018-03-27T07:08:36.239Z,55.90
2018-03-27T07:09:36.214Z,59.70
2018-03-27T07:10:36.233Z,62.70
2018-03-27T07:11:36.185Z,60.80
2018-03-27T07:12:36.203Z,61.60
2018-03-27T07:13:36.183Z,59.20
2018-03-27T07:14:36.152Z,60.30
2018-03-27T07:15:36.140Z,60.10
2018-03-27T07:16:36.135Z,60.70
2018-03-27T07:17:36.112Z,61.30
2018-03-27T07:18:36.133Z,59.40
2018-03-27T07:19:36.101Z,63.00
2018-03-27T07:20:36.066Z,58.60
2018-03-27T07:21:36.055Z,56.90
2018-03-27T07:22:36.040Z,51.90
2018-03-27T07:23:36.036Z,56.50
2018-03-27T07:24:36.014Z,52.40
2018-03-27T07:25:36.001Z,55.00
2018-03-27T07:26:35.987Z,55.70
2018-03-27T07:27:35.980Z,52.30
2018-03-27T07:28:35.962Z,49.00
2018-03-27T07:29:35.952Z,52.40
2018-03-27T07:30:35.937Z,52.00
2018-03-27T07:31:35.924Z,50.10
2018-03-27T07:32:35.918Z,47.80
2018-03-27T07:33:35.906Z,50.90
2018-03-27T07:34:35.883Z,50.60
2018-03-27T07:35:35.874Z,51.20
2018-03-27T07:36:35.863Z,47.30
2018-03-27T07:37:35.846Z,51.10
2018-03-27T07:38:35.838Z,45.90
2018-03-27T07:39:35.820Z,48.40
2018-03-27T07:40:35.816Z,47.60
2018-03-27T07:41:35.801Z,48.40
2018-03-27T07:42:35.789Z,46.30
2018-03-27T07:43:35.773Z,46.90
2018-03-27T07:44:35.771Z,50.30
2018-03-27T07:45:35.744Z,50.60
2018-03-27T07:46:35.732Z,49.20
2018-03-27T07:47:35.721Z,48.90
2018-03-27T07:48:35.713Z,52.10
2018-03-27T07:49:35.763Z,49.30
2018-03-27T07:50:35.681Z,49.50
2018-03-27T07:51:35.671Z,45.40
2018-03-27T07:52:35.658Z,45.10
2018-03-27T07:53:35.646Z,45.00
2018-03-27T07:54:35.631Z,45.80
2018-03-27T07:55:35.621Z,44.70
2018-03-27T07:56:35.607Z,47.30
2018-03-27T07:57:35.595Z,50.50
2018-03-27T07:58:35.589Z,48.70
2018-03-27T07:59:35.569Z,47.70
2018-03-27T08:00:35.557Z,45.50
2018-03-27T08:01:35.548Z,46.00
2018-03-27T08:02:35.534Z,47.70
2018-03-27T08:03:35.577Z,39.10
2018-03-27T08:04:35.507Z,42.50
2018-03-27T08:05:35.503Z,45.30
2018-03-27T08:06:35.491Z,42.60
2018-03-27T08:07:35.473Z,44.60
2018-03-27T08:08:35.464Z,43.90
2018-03-27T08:09:35.450Z,43.60
2018-03-27T08:10:35.438Z,45.10
2018-03-27T08:11:35.429Z,42.70
2018-03-27T08:12:35.414Z,45.20
2018-03-27T08:13:35.404Z,45.30
2018-03-27T08:14:35.394Z,43.10
2018-03-27T08:15:35.378Z,43.20
2018-03-27T08:16:35.373Z,43.40
2018-03-27T08:17:35.360Z,43.60
2018-03-27T08:18:35.342Z,42.80
2018-03-27T08:19:35.330Z,46.50
2018-03-27T08:20:35.320Z,48.70
2018-03-27T08:21:35.355Z,46.20
2018-03-27T08:22:35.296Z,44.20
2018-03-27T08:23:35.290Z,39.90
2018-03-27T08:24:35.275Z,44.20
2018-03-27T08:25:35.268Z,42.80
2018-03-27T08:26:35.257Z,43.10
2018-03-27T08:27:35.248Z,42.30
2018-03-27T08:28:35.229Z,43.30
2018-03-27T08:29:35.219Z,45.50
2018-03-27T08:30:35.212Z,42.30
2018-03-27T08:31:35.195Z,47.50
2018-03-27T08:32:35.183Z,42.60
2018-03-27T08:33:35.173Z,45.40
2018-03-27T08:34:35.166Z,43.40
2018-03-27T08:35:35.152Z,45.20
2018-03-27T08:36:35.139Z,41.50
2018-03-27T08:37:35.130Z,42.90
2018-03-27T08:38:35.119Z,47.50
2018-03-27T08:39:35.109Z,43.10
2018-03-27T08:40:35.097Z,45.80
2018-03-27T08:41:35.096Z,43.90
2018-03-27T08:42:35.078Z,45.40
2018-03-27T08:43:35.062Z,46.50
2018-03-27T08:44:35.057Z,42.90
2018-03-27T08:45:35.046Z,46.10
2018-03-27T08:46:35.035Z,47.30
2018-03-27T08:47:35.020Z,50.60
2018-03-27T08:48:35.010Z,52.30
2018-03-27T08:49:34.999Z,47.30
2018-03-27T08:50:34.986Z,48.10
2018-03-27T08:51:34.976Z,47.80
2018-03-27T08:52:34.966Z,48.10
2018-03-27T08:53:34.954Z,48.20
2018-03-27T08:54:34.941Z,48.80
2018-03-27T08:55:34.932Z,46.40
2018-03-27T08:56:34.926Z,50.50
2018-03-27T08:57:34.919Z,44.70
2018-03-27T08:58:34.904Z,43.20
2018-03-27T08:59:34.888Z,42.00
2018-03-27T09:00:34.884Z,44.00
2018-03-27T09:01:34.872Z,43.50
2018-03-27T09:02:34.862Z,46.90
2018-03-27T09:03:34.848Z,48.10
2018-03-27T09:04:34.837Z,48.40
2018-03-27T09:05:34.824Z,48.30
2018-03-27T09:06:34.819Z,45.50
2018-03-27T09:07:34.808Z,43.30
2018-03-27T09:08:34.797Z,44.40
2018-03-27T09:09:34.780Z,41.60
2018-03-27T09:10:34.772Z,43.40
2018-03-27T09:11:34.765Z,45.80
2018-03-27T09:12:34.755Z,41.60
2018-03-27T09:13:34.738Z,44.40
2018-03-27T09:14:34.726Z,44.10
2018-03-27T09:15:34.717Z,44.50
2018-03-27T09:16:34.706Z,43.80
2018-03-27T09:17:34.694Z,42.20
2018-03-27T09:18:34.686Z,45.30
2018-03-27T09:19:34.674Z,43.20
2018-03-27T09:20:34.665Z,43.60
2018-03-27T09:21:34.651Z,42.00
2018-03-27T09:22:34.640Z,44.30
2018-03-27T09:23:34.631Z,44.40
2018-03-27T09:24:34.625Z,41.10
2018-03-27T09:25:34.609Z,41.20
2018-03-27T09:26:34.602Z,44.20
2018-03-27T09:27:34.587Z,40.50
2018-03-27T09:28:34.616Z,41.70
2018-03-27T09:29:34.567Z,40.50
2018-03-27T09:30:34.563Z,40.90
2018-03-27T09:31:34.545Z,41.60
2018-03-27T09:32:34.537Z,41.30
2018-03-27T09:33:34.527Z,39.50
2018-03-27T09:34:34.514Z,38.80
2018-03-27T09:35:34.508Z,38.90
2018-03-27T09:36:34.495Z,39.70
2018-03-27T09:37:34.488Z,38.30
2018-03-27T09:38:34.474Z,37.70
2018-03-27T09:39:34.464Z,40.60
2018-03-27T09:40:34.457Z,38.20
2018-03-27T09:41:34.446Z,38.30
2018-03-27T09:42:34.434Z,39.40
2018-03-27T09:43:34.437Z,39.80
2018-03-27T09:44:34.423Z,37.20
2018-03-27T09:45:34.442Z,38.70
2018-03-27T09:46:34.394Z,37.40
2018-03-27T09:47:34.387Z,35.20
2018-03-27T09:48:34.381Z,36.50
2018-03-27T09:49:34.367Z,37.50
2018-03-27T09:50:34.354Z,36.60
2018-03-27T09:51:34.345Z,36.40
2018-03-27T09:52:34.336Z,39.50
2018-03-27T09:53:34.325Z,34.40
2018-03-27T09:54:34.317Z,33.60
2018-03-27T09:55:34.346Z,34.40
2018-03-27T09:56:34.303Z,33.20
2018-03-27T09:57:34.292Z,35.50
2018-03-27T09:58:34.276Z,33.80
2018-03-27T09:59:34.268Z,34.10
2018-03-27T10:00:34.262Z,32.80
2018-03-27T10:01:34.248Z,32.40
2018-03-27T10:02:34.243Z,33.20
2018-03-27T10:03:34.232Z,32.30
2018-03-27T10:04:34.220Z,32.00
2018-03-27T10:05:34.208Z,30.40
2018-03-27T10:06:34.194Z,32.70
2018-03-27T10:07:34.187Z,33.90
2018-03-27T10:08:34.175Z,33.80
2018-03-27T10:09:34.171Z,32.20
2018-03-27T10:10:34.154Z,31.20
2018-03-27T10:11:34.146Z,34.30
2018-03-27T10:12:34.137Z,31.00
2018-03-27T10:13:34.128Z,31.60
2018-03-27T10:14:34.119Z,34.50
2018-03-27T10:15:34.104Z,32.30
2018-03-27T10:16:34.102Z,34.00
2018-03-27T10:17:34.086Z,34.20
2018-03-27T10:18:34.078Z,33.10
2018-03-27T10:19:34.064Z,34.20
2018-03-27T10:20:34.051Z,32.50
2018-03-27T10:21:34.050Z,33.40
2018-03-27T10:22:34.032Z,33.00
2018-03-27T10:23:34.028Z,33.90
2018-03-27T10:24:34.011Z,34.70
2018-03-27T10:25:34.000Z,31.70
2018-03-27T10:26:33.994Z,30.20
2018-03-27T10:27:33.979Z,34.30
2018-03-27T10:28:33.975Z,29.70
2018-03-27T10:29:33.960Z,29.90
2018-03-27T10:30:33.948Z,30.20
2018-03-27T10:31:33.937Z,31.30
2018-03-27T10:32:33.926Z,30.40
2018-03-27T10:33:33.923Z,32.20
2018-03-27T10:34:33.905Z,34.60
2018-03-27T10:35:33.895Z,31.70
2018-03-27T10:36:33.883Z,34.50
2018-03-27T10:37:33.874Z,32.80
2018-03-27T10:38:33.921Z,34.80
2018-03-27T10:39:33.853Z,33.40
2018-03-27T10:40:33.845Z,34.60
2018-03-27T10:41:33.830Z,31.00
2018-03-27T10:42:33.820Z,35.10
2018-03-27T10:43:33.813Z,35.90
2018-03-27T10:44:33.802Z,36.10
2018-03-27T10:45:33.792Z,33.40
2018-03-27T10:46:33.790Z,35.20
2018-03-27T10:47:33.765Z,34.90
2018-03-27T10:48:33.755Z,36.00
2018-03-27T10:49:33.746Z,36.20
2018-03-27T10:50:33.733Z,35.40
2018-03-27T10:51:33.728Z,35.00
2018-03-27T10:52:33.716Z,33.80
2018-03-27T10:53:33.710Z,36.80
2018-03-27T10:54:33.691Z,33.30
2018-03-27T10:55:33.679Z,31.90
2018-03-27T10:56:33.677Z,30.80
2018-03-27T10:57:33.659Z,32.20
2018-03-27T10:58:33.653Z,33.30
2018-03-27T10:59:33.659Z,32.10
2018-03-27T11:00:33.635Z,30.30
2018-03-27T11:01:33.621Z,31.90
2018-03-27T11:02:33.605Z,33.00
2018-03-27T11:03:33.603Z,34.50
2018-03-27T11:04:33.585Z,33.20
2018-03-27T11:05:33.575Z,34.40
2018-03-27T11:06:33.564Z,32.40
2018-03-27T11:07:33.555Z,31.30
2018-03-27T11:08:33.543Z,32.30
2018-03-27T11:09:33.540Z,32.60
2018-03-27T11:10:33.523Z,31.90
2018-03-27T11:11:33.511Z,30.60
2018-03-27T11:12:33.508Z,32.30
2018-03-27T11:13:33.491Z,33.80
2018-03-27T11:14:33.480Z,32.90
2018-03-27T11:15:33.469Z,32.70
2018-03-27T11:16:33.461Z,33.90
2018-03-27T11:17:33.482Z,31.60
2018-03-27T11:18:33.446Z,33.00
2018-03-27T11:19:33.436Z,32.80
2018-03-27T11:20:33.417Z,31.70
2018-03-27T11:21:33.412Z,31.30
2018-03-27T11:22:33.399Z,30.20
2018-03-27T11:23:33.390Z,32.30
2018-03-27T11:24:33.377Z,33.20
2018-03-27T11:25:33.366Z,29.50
2018-03-27T11:26:33.357Z,29.60
2018-03-27T11:27:33.343Z,31.70
2018-03-27T11:28:33.332Z,31.80
2018-03-27T11:29:33.336Z,32.50
2018-03-27T11:30:33.311Z,31.10
2018-03-27T11:31:33.303Z,31.30
2018-03-27T11:32:33.301Z,30.90
2018-03-27T11:33:33.283Z,28.90
2018-03-27T11:34:33.271Z,28.10
2018-03-27T11:35:33.260Z,26.40
2018-03-27T11:36:33.252Z,27.30
2018-03-27T11:37:33.239Z,27.90
2018-03-27T11:38:33.240Z,26.10
2018-03-27T11:39:33.225Z,27.50
2018-03-27T11:40:33.210Z,27.60
2018-03-27T11:41:33.205Z,27.90
2018-03-27T11:42:33.191Z,29.00
2018-03-27T11:43:33.181Z,27.30
2018-03-27T11:44:33.169Z,28.20
2018-03-27T11:45:33.161Z,28.50
2018-03-27T11:46:33.151Z,27.80
2018-03-27T11:47:33.140Z,29.40
2018-03-27T11:48:33.136Z,27.50
2018-03-27T11:49:33.120Z,26.10
2018-03-27T11:50:33.112Z,28.00
2018-03-27T11:51:33.100Z,28.10
2018-03-27T11:52:33.091Z,26.00
2018-03-27T11:53:33.088Z,27.20
2018-03-27T11:54:33.108Z,27.50
2018-03-27T11:55:33.065Z,25.60
2018-03-27T11:56:33.071Z,25.30
2018-03-27T11:57:33.041Z,25.80
2018-03-27T11:58:33.029Z,29.80
2018-03-27T11:59:33.021Z,25.90
2018-03-27T12:00:33.015Z,25.90
2018-03-27T12:01:33.020Z,24.70
2018-03-27T12:02:32.996Z,23.10
2018-03-27T12:03:32.982Z,26.50
2018-03-27T12:04:32.969Z,24.80
2018-03-27T12:05:32.966Z,24.10
2018-03-27T12:06:32.957Z,25.20
2018-03-27T12:07:32.942Z,23.90
2018-03-27T12:08:32.931Z,25.30
2018-03-27T12:09:32.923Z,24.00
2018-03-27T12:10:32.916Z,25.30
2018-03-27T12:11:32.905Z,27.40
2018-03-27T12:12:32.899Z,28.90
2018-03-27T12:13:32.886Z,24.00
2018-03-27T12:14:32.869Z,24.60
2018-03-27T12:15:32.865Z,25.40
2018-03-27T12:16:32.850Z,25.60
2018-03-27T12:17:32.840Z,23.60
2018-03-27T12:18:32.832Z,25.40
2018-03-27T12:19:32.821Z,25.70
2018-03-27T12:20:32.822Z,25.00
2018-03-27T12:21:32.803Z,25.30
2018-03-27T12:22:32.795Z,24.70
2018-03-27T12:23:32.781Z,23.20
2018-03-27T12:24:32.776Z,21.10
2018-03-27T12:25:32.767Z,19.80
2018-03-27T12:26:32.753Z,22.40
2018-03-27T12:27:32.743Z,22.10
2018-03-27T12:28:32.734Z,25.00
2018-03-27T12:29:32.726Z,25.50
2018-03-27T12:30:32.714Z,22.60
2018-03-27T12:31:32.705Z,22.20
2018-03-27T12:32:32.699Z,23.70
2018-03-27T12:33:32.694Z,21.90
2018-03-27T12:34:32.685Z,22.00
2018-03-27T12:35:32.670Z,22.70
2018-03-27T12:36:32.665Z,22.50
2018-03-27T12:37:32.651Z,23.00
2018-03-27T12:38:32.642Z,22.30
2018-03-27T12:39:32.638Z,21.60
2018-03-27T12:40:32.623Z,22.30
2018-03-27T12:41:32.641Z,22.40
2018-03-27T12:42:32.604Z,25.10
2018-03-27T12:43:32.609Z,23.40
2018-03-27T12:44:32.592Z,24.20
2018-03-27T12:45:32.581Z,23.00
2018-03-27T12:46:32.572Z,24.80
2018-03-27T12:47:32.564Z,24.70
2018-03-27T12:48:32.555Z,24.60
2018-03-27T12:49:32.548Z,22.90
2018-03-27T12:50:32.535Z,21.40
2018-03-27T12:51:32.528Z,22.50
2018-03-27T12:52:32.520Z,22.40